Main page
METAR-TAF:

METAR-TAF

Airports :

Nouméa Magenta Airport

Nouméa, New Caledonia

latitude: 22-15-30S, longitude: 166-28-22E, elevation: 3 m

METAR: missing

Time: 03:09 (16:09 UTC)

Forecast

The report was made 5 hours and 9 minutes ago, at 11:00 UTC
Forecast valid from 28 at 12 UTC to 29 at 12 UTC
Wind 8 kt from the East
Visibility 10 km or more
Few clouds at a height of 4000 ft

TAF: NWWM 281100Z 2812/2912 08008KT 9999 FEW040

Weather observations and forecasts of more than 4000 airports (METAR and TAF reports).

The available stations are represented by yellow and red dots on the map.

Hover mouse over dot to see the name of the station.

Then click to see weather observations and forecasts.

To change the map : click on the green buttons with a black cross to zoom in, on the green button with a dash to zoom out, or on the green arrows for adjacent maps.


METAR-TAF: